Time;durP1;ratioP1;P1;durP2;ratioP2;P2;SDS_P1;SDS_P2;PMS_P1;PMS_P2;Temp;Humidity;BMP_temperature;BMP_pressure;BME280_temperature;BME280_humidity;BME280_pressure;Samples;Min_cycle;Max_cycle;Signal;HPM_P1;HPM_P2
2022/12/29 00:00:26;;;;;;;27.52;8.00;;;;;;;3.91;100.00;98830.31;2127589;84;20984;-58
2022/12/29 00:03:29;;;;;;;27.15;8.70;;;;;;;3.83;100.00;98831.02;2106013;84;21008;-59
2022/12/29 00:06:31;;;;;;;27.20;8.20;;;;;;;3.81;100.00;98829.31;2128038;84;21467;-59
2022/12/29 00:09:32;;;;;;;30.17;9.53;;;;;;;3.72;100.00;98830.93;2127940;84;21072;-59
2022/12/29 00:15:37;;;;;;;30.57;8.20;;;;;;;3.59;100.00;98838.69;2162000;82;21783;-58
2022/12/29 00:18:38;;;;;;;29.80;7.65;;;;;;;3.58;100.00;98835.26;2172506;81;21016;-58
2022/12/29 00:36:57;;;;;;;33.08;9.90;;;;;;;3.49;100.00;98830.81;2163881;82;21527;-58
2022/12/29 00:46:05;;;;;;;28.47;7.67;;;;;;;3.35;100.00;98833.40;2163315;82;21001;-58
2022/12/29 00:52:10;;;;;;;30.95;8.15;;;;;;;3.23;100.00;98829.45;2108994;83;20988;-59
2022/12/29 00:55:11;;;;;;;26.10;7.65;;;;;;;3.25;100.00;98834.59;2137215;83;21443;-58
2022/12/29 00:58:13;;;;;;;28.85;9.15;;;;;;;3.30;100.00;98835.27;2137242;83;20980;-59
2022/12/29 01:01:14;;;;;;;25.40;7.70;;;;;;;3.29;100.00;98829.72;2137099;83;21516;-58
2022/12/29 01:04:16;;;;;;;29.00;8.33;;;;;;;3.32;100.00;98825.72;2137249;83;21023;-58
2022/12/29 01:07:17;;;;;;;26.27;7.67;;;;;;;3.34;100.00;98829.56;2137569;83;21077;-58
2022/12/29 01:10:19;;;;;;;35.15;12.70;;;;;;;3.29;100.00;98826.66;2137144;83;21301;-58
2022/12/29 01:13:20;;;;;;;68.67;29.55;;;;;;;3.29;100.00;98828.42;2182018;81;20937;-58
2022/12/29 01:16:22;;;;;;;77.58;34.08;;;;;;;3.35;100.00;98826.92;2182220;82;21015;-58
2022/12/29 01:19:23;;;;;;;62.70;25.43;;;;;;;3.40;100.00;98811.21;2182005;82;21021;-58
2022/12/29 01:22:25;;;;;;;64.50;25.90;;;;;;;3.44;100.00;98804.57;2181862;82;21583;-58
2022/12/29 01:25:26;;;;;;;42.85;15.93;;;;;;;3.55;100.00;98802.94;2182028;82;20985;-58
2022/12/29 01:28:27;;;;;;;35.58;13.05;;;;;;;3.58;100.00;98805.43;2182013;81;20997;-58
2022/12/29 01:31:29;;;;;;;31.62;10.13;;;;;;;3.58;100.00;98796.81;2182221;82;20969;-59
2022/12/29 01:34:30;;;;;;;29.18;9.20;;;;;;;3.69;100.00;98796.44;2181649;82;20989;-58
2022/12/29 01:37:32;;;;;;;31.20;9.88;;;;;;;3.71;100.00;98798.09;2172174;82;21095;-58
2022/12/29 01:40:33;;;;;;;30.12;9.73;;;;;;;3.73;100.00;98795.44;2172088;81;21037;-59
2022/12/29 01:43:35;;;;;;;29.77;9.73;;;;;;;3.78;100.00;98785.31;2172263;81;21084;-58
2022/12/29 01:46:37;;;;;;;30.08;9.30;;;;;;;3.78;100.00;98785.31;2171828;82;21601;-58
2022/12/29 01:49:39;;;;;;;30.37;10.40;;;;;;;3.77;100.00;98784.06;2171857;81;21592;-58
2022/12/29 01:52:41;;;;;;;30.23;9.83;;;;;;;3.74;100.00;98788.91;2172168;81;21073;-58
2022/12/29 01:55:42;;;;;;;29.92;9.60;;;;;;;3.92;100.00;98790.47;2172042;81;21528;-59
2022/12/29 01:58:43;;;;;;;29.57;9.08;;;;;;;3.81;100.00;98775.28;2172144;81;21061;-58
2022/12/29 02:01:45;;;;;;;28.38;8.43;;;;;;;3.80;100.00;98777.47;2172075;81;21057;-59
2022/12/29 02:04:47;;;;;;;28.73;9.87;;;;;;;3.86;100.00;98766.87;2172438;82;21089;-58
2022/12/29 02:07:49;;;;;;;29.40;8.85;;;;;;;3.90;100.00;98771.52;2172551;82;21484;-58
2022/12/29 02:10:50;;;;;;;29.65;9.40;;;;;;;3.86;100.00;98766.87;2172360;82;20962;-58
2022/12/29 02:13:52;;;;;;;28.03;9.00;;;;;;;3.89;100.00;98757.68;2172418;81;21603;-58
2022/12/29 02:16:54;;;;;;;30.62;9.63;;;;;;;3.93;100.00;98755.84;2172216;81;21083;-58
2022/12/29 02:19:55;;;;;;;26.12;8.25;;;;;;;3.87;100.00;98766.44;2171754;81;21123;-58
2022/12/29 02:22:57;;;;;;;29.40;9.27;;;;;;;3.81;100.00;98762.31;2172438;81;20992;-58
2022/12/29 02:25:58;;;;;;;27.85;8.08;;;;;;;3.77;100.00;98756.83;2172073;81;21550;-58
2022/12/29 02:29:00;;;;;;;25.43;8.38;;;;;;;3.91;100.00;98749.87;2172220;81;21495;-58
2022/12/29 02:32:01;;;;;;;29.35;9.15;;;;;;;3.92;100.00;98751.55;2172065;81;21093;-59
2022/12/29 02:35:02;;;;;;;32.00;11.57;;;;;;;3.91;100.00;98748.57;2171956;82;21520;-58
2022/12/29 02:38:04;;;;;;;34.92;11.33;;;;;;;3.72;100.00;98741.42;2172191;81;21029;-59
2022/12/29 02:41:05;;;;;;;32.07;9.67;;;;;;;3.70;100.00;98751.45;2172222;81;21077;-58
2022/12/29 02:44:07;;;;;;;28.45;9.00;;;;;;;3.86;100.00;98751.77;2172164;81;21354;-59
2022/12/29 02:47:09;;;;;;;29.42;8.95;;;;;;;3.90;100.00;98745.11;2171794;81;21064;-58
2022/12/29 02:50:10;;;;;;;32.15;9.60;;;;;;;3.97;100.00;98741.86;2172164;81;21023;-58
2022/12/29 02:53:12;;;;;;;29.90;9.00;;;;;;;4.09;100.00;98734.91;2172047;81;21084;-58
2022/12/29 02:56:13;;;;;;;28.50;8.43;;;;;;;4.15;100.00;98741.20;2172545;81;20972;-58
2022/12/29 02:59:15;;;;;;;28.50;9.33;;;;;;;4.15;100.00;98741.20;2172127;81;21540;-58
2022/12/29 03:02:16;;;;;;;29.30;8.98;;;;;;;4.27;100.00;98739.06;2172049;81;21100;-59
2022/12/29 03:05:18;;;;;;;27.00;8.55;;;;;;;4.28;100.00;98751.99;2172156;81;21099;-59
2022/12/29 03:08:19;;;;;;;28.30;8.93;;;;;;;4.25;100.00;98736.53;2172338;81;21136;-59
2022/12/29 03:17:27;;;;;;;24.72;7.92;;;;;;;4.21;100.00;98729.75;2161662;82;21000;-58
2022/12/29 03:20:29;;;;;;;27.65;7.85;;;;;;;4.14;100.00;98735.61;2171997;81;20962;-59
2022/12/29 03:23:30;;;;;;;24.77;7.47;;;;;;;4.18;100.00;98736.79;2172264;81;20989;-58
2022/12/29 03:26:31;;;;;;;27.48;7.28;;;;;;;4.27;100.00;98737.77;2172016;81;21061;-58
2022/12/29 03:29:33;;;;;;;27.73;8.33;;;;;;;4.37;100.00;98723.54;2171930;82;21580;-59
2022/12/29 03:32:34;;;;;;;29.07;9.20;;;;;;;4.29;100.00;98736.78;2172152;81;21017;-58
2022/12/29 03:35:36;;;;;;;28.00;9.30;;;;;;;4.33;100.00;98724.55;2171909;81;21097;-59
2022/12/29 03:38:37;;;;;;;26.20;8.53;;;;;;;4.36;100.00;98720.53;2172081;81;21124;-58
2022/12/29 03:41:38;;;;;;;33.78;10.35;;;;;;;4.40;100.00;98710.44;2172233;81;21084;-58
2022/12/29 03:44:40;;;;;;;26.57;7.60;;;;;;;4.36;100.00;98698.46;2172355;82;21124;-58
2022/12/29 03:47:42;;;;;;;25.50;7.13;;;;;;;4.35;100.00;98703.25;2172540;81;21045;-59
2022/12/29 03:50:43;;;;;;;23.80;6.62;;;;;;;4.29;100.00;98685.31;2172124;82;21593;-59
2022/12/29 03:56:48;;;;;;;27.37;6.58;;;;;;;4.21;100.00;98686.91;2160848;82;21032;-58
2022/12/29 03:59:50;;;;;;;22.55;6.10;;;;;;;4.23;100.00;98688.98;2172405;81;21016;-58
2022/12/29 04:02:51;;;;;;;20.50;5.63;;;;;;;4.18;100.00;98688.77;2172527;82;20996;-58
2022/12/29 04:05:53;;;;;;;26.85;5.92;;;;;;;4.22;100.00;98689.05;2172397;81;21132;-59
2022/12/29 04:08:54;;;;;;;23.83;5.72;;;;;;;4.26;100.00;98685.44;2172145;81;21000;-59
2022/12/29 04:11:56;;;;;;;21.75;6.10;;;;;;;4.26;100.00;98680.24;2172468;82;21539;-58
2022/12/29 04:14:57;;;;;;;22.48;6.30;;;;;;;4.31;100.00;98683.49;2172188;81;21000;-59
2022/12/29 04:17:59;;;;;;;20.37;5.30;;;;;;;4.35;100.00;98678.58;2172178;81;21528;-58
2022/12/29 04:21:02;;;;;;;20.67;5.83;;;;;;;4.34;100.00;98675.16;2172410;81;20996;-58
2022/12/29 04:24:06;;;;;;;23.85;6.17;;;;;;;4.42;100.00;98673.55;2172357;82;21806;-59
2022/12/29 04:27:07;;;;;;;24.00;6.22;;;;;;;4.43;100.00;98673.12;2106526;84;21015;-59
2022/12/29 04:30:08;;;;;;;22.15;5.47;;;;;;;4.55;100.00;98672.63;2127691;84;21546;-59
2022/12/29 04:33:10;;;;;;;20.35;4.92;;;;;;;4.45;100.00;98666.97;2127830;84;21040;-58
2022/12/29 04:36:11;;;;;;;20.88;4.97;;;;;;;4.52;100.00;98659.76;2127604;83;20981;-58
2022/12/29 04:39:13;;;;;;;19.45;5.47;;;;;;;4.64;100.00;98659.73;2127928;84;21523;-58
2022/12/29 04:42:14;;;;;;;27.13;6.67;;;;;;;4.56;100.00;98661.34;2127499;84;20992;-58
2022/12/29 04:45:16;;;;;;;24.07;6.30;;;;;;;4.57;100.00;98666.94;2127819;84;22182;-58
2022/12/29 04:48:17;;;;;;;20.90;5.83;;;;;;;4.60;100.00;98662.08;2127491;84;21013;-58
2022/12/29 04:51:18;;;;;;;19.75;5.22;;;;;;;4.50;100.00;98648.59;2127888;84;21482;-58
2022/12/29 04:54:20;;;;;;;21.93;5.03;;;;;;;4.55;100.00;98640.62;2127532;84;21005;-58
2022/12/29 04:57:21;;;;;;;26.20;5.45;;;;;;;4.59;100.00;98640.43;2127624;84;21059;-58
2022/12/29 05:00:23;;;;;;;22.58;5.30;;;;;;;4.66;100.00;98641.05;2127591;84;21028;-58
2022/12/29 05:03:24;;;;;;;20.68;5.53;;;;;;;4.68;100.00;98636.62;2127659;84;21024;-59
2022/12/29 05:06:26;;;;;;;22.05;5.42;;;;;;;4.59;100.00;98631.80;2127742;84;21031;-58
2022/12/29 05:09:27;;;;;;;21.57;5.80;;;;;;;4.57;100.00;98640.09;2127549;84;21075;-58
2022/12/29 05:12:29;;;;;;;20.00;5.40;;;;;;;4.51;100.00;98632.95;2127851;84;21439;-58
2022/12/29 05:15:30;;;;;;;23.15;6.15;;;;;;;4.53;100.00;98622.96;2127602;84;21012;-58
2022/12/29 05:18:32;;;;;;;21.77;5.70;;;;;;;4.48;100.00;98621.39;2128037;84;21487;-58
2022/12/29 05:21:34;;;;;;;22.17;6.00;;;;;;;4.44;100.00;98630.20;2127754;84;21687;-58
2022/12/29 05:24:35;;;;;;;21.82;6.17;;;;;;;4.45;100.00;98629.73;2127613;84;21566;-58
2022/12/29 05:27:36;;;;;;;21.17;5.72;;;;;;;4.48;100.00;98629.61;2127412;84;21078;-58
2022/12/29 05:30:38;;;;;;;19.90;6.05;;;;;;;4.46;100.00;98624.48;2127724;84;21607;-58
2022/12/29 05:33:40;;;;;;;21.62;6.05;;;;;;;4.48;100.00;98623.98;2127658;84;20980;-59
2022/12/29 05:36:41;;;;;;;22.22;6.47;;;;;;;4.54;100.00;98619.00;2127150;83;21016;-59
2022/12/29 05:39:42;;;;;;;29.10;9.28;;;;;;;4.46;100.00;98610.66;2127733;84;20984;-58
2022/12/29 05:42:44;;;;;;;28.60;10.28;;;;;;;4.45;100.00;98608.96;2127556;84;21009;-59
2022/12/29 05:45:45;;;;;;;23.85;6.22;;;;;;;4.43;100.00;98614.68;2172093;81;21592;-58
2022/12/29 05:48:47;;;;;;;19.85;5.33;;;;;;;4.36;100.00;98611.94;2172029;82;21119;-58
2022/12/29 05:51:48;;;;;;;20.32;5.97;;;;;;;4.35;100.00;98621.45;2172425;82;21464;-58
2022/12/29 05:54:49;;;;;;;19.98;5.80;;;;;;;4.23;100.00;98626.67;2172054;82;21088;-59
2022/12/29 05:57:51;;;;;;;20.20;5.50;;;;;;;4.21;100.00;98629.80;2172071;81;21045;-58
2022/12/29 06:00:52;;;;;;;22.02;5.47;;;;;;;4.20;100.00;98630.69;2172181;81;21029;-58
2022/12/29 06:03:54;;;;;;;24.25;6.12;;;;;;;4.11;100.00;98625.86;2171749;81;21068;-58
2022/12/29 06:06:55;;;;;;;21.27;5.60;;;;;;;4.12;100.00;98616.72;2172460;81;20976;-58
2022/12/29 06:09:57;;;;;;;19.80;5.55;;;;;;;4.12;100.00;98601.14;2172041;81;21506;-59
2022/12/29 06:12:58;;;;;;;25.55;6.30;;;;;;;4.08;100.00;98592.20;2172696;81;21463;-58
2022/12/29 06:16:00;;;;;;;22.70;6.40;;;;;;;4.03;100.00;98593.69;2172439;82;20945;-59
2022/12/29 06:19:01;;;;;;;24.85;6.35;;;;;;;4.00;100.00;98595.11;2172041;81;21021;-58
2022/12/29 06:22:03;;;;;;;22.13;6.40;;;;;;;3.99;100.00;98606.37;2172238;81;21175;-58
2022/12/29 06:25:05;;;;;;;24.97;7.37;;;;;;;3.85;100.00;98614.70;2172318;81;21596;-58
2022/12/29 06:28:06;;;;;;;23.30;6.47;;;;;;;3.89;100.00;98613.66;2172392;81;21032;-58
2022/12/29 06:31:08;;;;;;;23.92;6.95;;;;;;;3.86;100.00;98625.92;2171814;82;21084;-58
2022/12/29 06:34:09;;;;;;;28.98;8.28;;;;;;;3.80;100.00;98619.20;2172516;82;21441;-59
2022/12/29 06:37:11;;;;;;;25.07;6.93;;;;;;;3.76;100.00;98624.94;2179224;81;21061;-59
2022/12/29 06:40:13;;;;;;;23.47;8.63;;;;;;;3.60;100.00;98623.35;2188849;81;21543;-58
2022/12/29 06:43:14;;;;;;;29.00;8.55;;;;;;;3.68;100.00;98616.61;2188746;81;21072;-59
2022/12/29 06:46:15;;;;;;;27.48;9.05;;;;;;;3.69;100.00;98620.87;2188611;81;21053;-58
2022/12/29 06:49:20;;;;;;;28.13;9.20;;;;;;;3.70;100.00;98613.96;2188730;81;21043;-58
2022/12/29 06:52:20;;;;;;;28.38;8.53;;;;;;;3.64;100.00;98609.84;2171902;81;20972;-59
2022/12/29 06:55:22;;;;;;;48.10;19.55;;;;;;;3.62;100.00;98608.59;2188745;81;21056;-58
2022/12/29 06:58:23;;;;;;;100.83;39.13;;;;;;;3.64;100.00;98611.13;2188959;81;21029;-59
2022/12/29 07:01:25;;;;;;;26.42;8.75;;;;;;;3.64;100.00;98611.13;2188599;81;21514;-58
2022/12/29 07:04:26;;;;;;;27.40;10.03;;;;;;;3.79;100.00;98607.98;2188860;81;21442;-58
2022/12/29 07:07:28;;;;;;;23.60;6.37;;;;;;;3.88;100.00;98609.83;2188599;81;21044;-59
2022/12/29 07:10:29;;;;;;;21.42;5.97;;;;;;;4.03;100.00;98610.56;2188533;81;21607;-58
2022/12/29 07:13:31;;;;;;;31.45;5.92;;;;;;;4.22;100.00;98600.31;2188669;81;21103;-58
2022/12/29 07:16:34;;;;;;;25.70;6.37;;;;;;;4.41;100.00;98586.17;2188528;81;21617;-58
2022/12/29 07:19:35;;;;;;;23.62;6.55;;;;;;;4.56;100.00;98576.08;2188666;81;20973;-59
2022/12/29 07:22:38;;;;;;;26.97;7.70;;;;;;;4.64;100.00;98580.48;2188764;81;21126;-58
2022/12/29 07:25:41;;;;;;;32.10;9.85;;;;;;;4.75;100.00;98592.59;2188555;81;21065;-59
2022/12/29 07:28:43;;;;;;;58.20;27.02;;;;;;;4.82;100.00;98597.92;2188614;81;21043;-59
2022/12/29 07:31:44;;;;;;;27.07;7.42;;;;;;;4.69;100.00;98607.97;2188857;81;21456;-59
2022/12/29 07:34:47;;;;;;;25.85;7.15;;;;;;;4.64;100.00;98603.87;2188584;81;20985;-59
2022/12/29 07:37:48;;;;;;;;;;;;;;;4.70;100.00;98607.54;2191215;81;21059;-59
2022/12/29 07:40:50;;;;;;;37.93;9.68;;;;;;;4.76;100.00;98599.48;2188553;81;20105;-59
2022/12/29 07:43:51;;;;;;;45.65;12.43;;;;;;;4.79;100.00;98608.45;2188686;81;20981;-58
2022/12/29 07:46:53;;;;;;;30.35;8.55;;;;;;;4.88;100.00;98611.13;2188489;81;21111;-59
2022/12/29 07:49:54;;;;;;;22.07;6.15;;;;;;;4.98;100.00;98607.23;2188683;81;20956;-58
2022/12/29 07:52:55;;;;;;;33.73;10.80;;;;;;;5.09;100.00;98602.06;2188601;81;20976;-58
2022/12/29 07:55:57;;;;;;;34.13;11.05;;;;;;;5.17;100.00;98600.83;2188827;81;20996;-58
2022/12/29 07:58:58;;;;;;;39.45;11.40;;;;;;;5.23;100.00;98608.82;2188541;81;21020;-58
2022/12/29 08:02:00;;;;;;;24.98;6.80;;;;;;;5.39;100.00;98605.10;2188221;81;21052;-58
2022/12/29 08:05:01;;;;;;;19.82;5.90;;;;;;;5.64;100.00;98593.14;2188689;81;20960;-58
2022/12/29 08:08:03;;;;;;;41.08;11.33;;;;;;;5.90;100.00;98597.64;2188575;81;21007;-59
2022/12/29 08:11:04;;;;;;;24.00;6.70;;;;;;;6.11;100.00;98601.05;2189051;81;21020;-58
2022/12/29 08:14:05;;;;;;;28.77;7.80;;;;;;;6.22;100.00;98598.80;2188508;81;21043;-58
2022/12/29 08:17:07;;;;;;;21.20;5.87;;;;;;;6.36;100.00;98595.52;2188826;81;20999;-58
2022/12/29 08:20:08;;;;;;;29.83;6.90;;;;;;;6.48;100.00;98594.56;2188841;81;21013;-59
2022/12/29 08:23:10;;;;;;;29.20;8.50;;;;;;;6.65;100.00;98587.23;2188922;81;21490;-58
2022/12/29 08:26:12;;;;;;;34.73;10.20;;;;;;;6.72;100.00;98578.20;2188761;81;21021;-58
2022/12/29 08:29:13;;;;;;;30.37;8.10;;;;;;;6.76;100.00;98570.61;2188620;81;21495;-58
2022/12/29 08:32:15;;;;;;;32.83;10.08;;;;;;;6.88;100.00;98563.94;2188681;81;20972;-58
2022/12/29 08:35:16;;;;;;;30.55;10.30;;;;;;;6.94;100.00;98568.87;2189101;81;21507;-59
2022/12/29 08:38:17;;;;;;;33.95;9.98;;;;;;;7.02;100.00;98563.25;2188488;81;21028;-58
2022/12/29 08:41:23;;;;;;;23.95;6.17;;;;;;;7.05;100.00;98562.66;2170671;81;21036;-58
2022/12/29 08:44:24;;;;;;;24.50;6.42;;;;;;;7.07;100.00;98559.97;2172065;81;20980;-58
2022/12/29 08:47:25;;;;;;;26.65;7.22;;;;;;;7.19;100.00;98572.36;2188981;81;21484;-58
2022/12/29 08:50:27;;;;;;;29.07;7.30;;;;;;;7.27;100.00;98566.30;2188922;81;20989;-58
2022/12/29 08:53:28;;;;;;;34.73;9.53;;;;;;;7.36;100.00;98573.28;2188859;81;20981;-59
2022/12/29 08:56:30;;;;;;;22.02;6.55;;;;;;;7.46;100.00;98575.78;2189090;81;20992;-59
2022/12/29 08:59:31;;;;;;;28.00;6.15;;;;;;;7.61;100.00;98576.30;2188790;81;20989;-59
2022/12/29 09:02:32;;;;;;;23.18;5.87;;;;;;;7.67;100.00;98568.60;2189100;81;21455;-59
2022/12/29 09:05:34;;;;;;;23.85;6.22;;;;;;;7.83;100.00;98569.92;2188764;81;21025;-58
2022/12/29 09:08:36;;;;;;;19.42;5.72;;;;;;;7.98;100.00;98579.99;2188669;81;21510;-59
2022/12/29 09:11:38;;;;;;;24.95;7.33;;;;;;;8.24;100.00;98579.86;2188961;81;20965;-58
2022/12/29 09:14:39;;;;;;;26.70;7.22;;;;;;;8.41;100.00;98575.01;2189071;81;21515;-59
2022/12/29 09:17:43;;;;;;;28.95;7.42;;;;;;;8.60;100.00;98587.08;2188807;81;20980;-59
2022/12/29 09:20:44;;;;;;;38.08;10.38;;;;;;;8.67;100.00;98578.78;2117282;83;21151;-59
2022/12/29 09:23:46;;;;;;;28.15;7.25;;;;;;;8.77;100.00;98588.73;2121516;84;21559;-59
2022/12/29 09:26:47;;;;;;;27.82;7.30;;;;;;;8.84;100.00;98583.05;2121271;84;21059;-59
2022/12/29 09:29:49;;;;;;;45.40;11.33;;;;;;;8.80;100.00;98588.55;2121347;84;21530;-59
2022/12/29 09:32:50;;;;;;;44.05;11.40;;;;;;;8.70;100.00;98588.23;2121365;84;20946;-58
2022/12/29 09:35:51;;;;;;;32.00;8.88;;;;;;;8.66;100.00;98581.48;2121168;84;21127;-58
2022/12/29 09:38:53;;;;;;;39.10;10.08;;;;;;;8.63;100.00;98585.59;2113793;84;21069;-58
2022/12/29 09:41:54;;;;;;;29.00;8.30;;;;;;;8.59;100.00;98578.41;2127591;83;21044;-59
2022/12/29 09:44:56;;;;;;;46.77;11.23;;;;;;;8.57;100.00;98573.70;2127426;84;21340;-59
2022/12/29 09:47:58;;;;;;;35.58;9.88;;;;;;;8.57;100.00;98571.09;2127417;83;21064;-58
2022/12/29 09:50:59;;;;;;;22.77;6.83;;;;;;;8.64;100.00;98575.05;2127256;83;21512;-59
2022/12/29 09:54:02;;;;;;;31.05;8.63;;;;;;;8.71;100.00;98563.78;2126953;84;21117;-59
2022/12/29 10:00:06;;;;;;;25.25;6.75;;;;;;;8.83;100.00;98551.31;2099548;84;21499;-59
2022/12/29 10:03:08;;;;;;;28.35;7.85;;;;;;;8.93;100.00;98556.83;2127225;84;21104;-59
2022/12/29 10:06:10;;;;;;;39.00;9.88;;;;;;;9.14;100.00;98559.96;2127166;84;21564;-58
2022/12/29 10:09:11;;;;;;;38.73;10.05;;;;;;;9.27;100.00;98558.77;2127278;84;21048;-59
2022/12/29 10:12:13;;;;;;;38.15;10.13;;;;;;;9.32;100.00;98559.79;2127322;84;21013;-59
2022/12/29 10:15:15;;;;;;;36.60;10.53;;;;;;;9.39;100.00;98557.17;2127415;84;21536;-58
2022/12/29 10:18:16;;;;;;;44.38;11.63;;;;;;;9.30;100.00;98549.89;2127155;84;21032;-59
2022/12/29 10:21:18;;;;;;;35.98;11.70;;;;;;;9.35;100.00;98546.52;2127197;84;21064;-59
2022/12/29 10:24:19;;;;;;;37.70;10.40;;;;;;;9.41;100.00;98540.92;2127413;84;21068;-59
2022/12/29 10:27:23;;;;;;;33.73;9.95;;;;;;;9.52;100.00;98541.56;2127290;83;21020;-59
2022/12/29 10:30:24;;;;;;;34.10;9.00;;;;;;;9.46;100.00;98540.16;2127425;83;21035;-58
2022/12/29 10:33:26;;;;;;;38.50;10.10;;;;;;;9.45;100.00;98535.88;2127302;84;21444;-59
2022/12/29 10:36:28;;;;;;;35.80;9.40;;;;;;;9.41;100.00;98538.31;2127455;83;21024;-59
2022/12/29 10:39:29;;;;;;;35.30;10.30;;;;;;;9.44;100.00;98535.95;2132859;83;21100;-59
2022/12/29 10:42:31;;;;;;;25.40;7.22;;;;;;;9.42;100.00;98527.36;2134545;83;21127;-59
2022/12/29 10:45:33;;;;;;;31.25;8.63;;;;;;;9.44;100.00;98528.95;2134158;83;21068;-59
2022/12/29 10:48:35;;;;;;;27.62;9.08;;;;;;;9.45;100.00;98516.70;2134311;83;21061;-59
2022/12/29 10:51:36;;;;;;;28.85;8.25;;;;;;;9.40;100.00;98513.53;2134171;83;21076;-59
2022/12/29 10:54:38;;;;;;;25.35;7.65;;;;;;;9.35;100.00;98513.34;2134278;83;21096;-59
2022/12/29 10:57:40;;;;;;;24.57;7.28;;;;;;;9.39;100.00;98506.61;2134135;83;21075;-59
2022/12/29 11:00:44;;;;;;;25.43;7.55;;;;;;;9.43;100.00;98518.10;2134328;83;21116;-59
2022/12/29 11:03:45;;;;;;;22.27;6.85;;;;;;;9.38;100.00;98514.08;2107799;83;21044;-59
2022/12/29 11:06:47;;;;;;;25.37;6.53;;;;;;;9.66;100.00;98514.06;2134247;83;21590;-59
2022/12/29 11:09:48;;;;;;;22.58;6.97;;;;;;;9.86;100.00;98497.09;2134307;83;21127;-59
2022/12/29 11:12:50;;;;;;;21.57;6.30;;;;;;;10.10;100.00;98498.25;2134378;83;21037;-59
2022/12/29 11:15:51;;;;;;;22.27;6.45;;;;;;;10.20;100.00;98498.02;2134268;83;21040;-59
2022/12/29 11:18:53;;;;;;;25.40;7.22;;;;;;;10.30;100.00;98499.13;2134422;83;21096;-59
2022/12/29 11:21:54;;;;;;;22.52;6.55;;;;;;;10.42;100.00;98505.38;2134262;83;21057;-58
2022/12/29 11:24:56;;;;;;;21.87;6.33;;;;;;;10.54;100.00;98495.41;2134123;83;21045;-58
2022/12/29 11:28:01;;;;;;;22.02;6.45;;;;;;;10.53;100.00;98494.17;2134015;83;21135;-59
2022/12/29 11:31:03;;;;;;;22.65;6.37;;;;;;;10.47;100.00;98499.83;2134319;83;21164;-58
2022/12/29 11:34:04;;;;;;;22.62;6.50;;;;;;;10.42;100.00;98488.34;2134369;83;21068;-59
2022/12/29 11:37:06;;;;;;;24.02;6.10;;;;;;;10.40;100.00;98505.48;2134141;83;21044;-58
2022/12/29 11:40:10;;;;;;;23.20;6.17;;;;;;;10.34;100.00;98495.41;2133783;83;21032;-58
2022/12/29 11:43:11;;;;;;;23.18;7.00;;;;;;;10.35;100.00;98501.00;2134061;83;21543;-59
2022/12/29 11:46:13;;;;;;;25.47;7.47;;;;;;;10.37;100.00;98506.13;2134380;83;21021;-58
2022/12/29 11:49:14;;;;;;;23.83;7.45;;;;;;;10.36;100.00;98503.99;2134083;83;21080;-58
2022/12/29 11:52:16;;;;;;;25.75;7.35;;;;;;;10.41;100.00;98498.44;2134265;83;21060;-59
2022/12/29 11:55:17;;;;;;;28.95;7.65;;;;;;;10.41;100.00;98494.52;2134065;83;21155;-59
2022/12/29 11:58:19;;;;;;;22.62;6.45;;;;;;;10.33;100.00;98494.13;2134020;83;21027;-59
2022/12/29 12:01:23;;;;;;;23.85;7.47;;;;;;;10.38;100.00;98494.23;2134520;83;21111;-59
2022/12/29 12:04:24;;;;;;;22.00;6.60;;;;;;;10.44;100.00;98481.20;2134308;83;21020;-59
2022/12/29 12:07:25;;;;;;;22.90;6.55;;;;;;;10.38;100.00;98483.75;2134503;83;21140;-58
2022/12/29 12:10:27;;;;;;;21.37;6.25;;;;;;;10.39;100.00;98486.75;2134212;83;21096;-59
2022/12/29 12:13:28;;;;;;;26.15;7.55;;;;;;;10.39;100.00;98489.38;2134500;83;20988;-59
2022/12/29 12:16:30;;;;;;;21.12;6.17;;;;;;;10.30;100.00;98480.78;2134628;83;21100;-59
2022/12/29 12:19:31;;;;;;;23.25;6.65;;;;;;;10.28;100.00;98480.50;2134234;83;21084;-58
2022/12/29 12:22:33;;;;;;;24.12;6.75;;;;;;;10.12;100.00;98475.42;2134651;83;21043;-59
2022/12/29 12:25:35;;;;;;;20.17;6.17;;;;;;;10.06;100.00;98479.28;2134289;83;21036;-58
2022/12/29 12:28:36;;;;;;;27.87;7.20;;;;;;;10.04;100.00;98474.58;2134605;83;21499;-59
2022/12/29 12:31:38;;;;;;;23.02;6.75;;;;;;;9.80;100.00;98468.68;2134271;83;21050;-59
2022/12/29 12:34:39;;;;;;;21.70;6.45;;;;;;;9.67;100.00;98477.78;2134480;83;21571;-59
2022/12/29 12:37:41;;;;;;;24.70;7.67;;;;;;;9.76;100.00;98465.05;2134603;83;20993;-58
2022/12/29 12:40:42;;;;;;;27.67;8.48;;;;;;;9.66;100.00;98471.33;2134283;83;21041;-58
2022/12/29 12:43:44;;;;;;;26.62;7.97;;;;;;;9.61;100.00;98469.45;2134496;83;21547;-59
2022/12/29 12:46:46;;;;;;;22.80;6.90;;;;;;;9.60;100.00;98466.48;2134399;83;21084;-59
2022/12/29 12:49:47;;;;;;;25.35;8.60;;;;;;;9.51;100.00;98471.36;2134345;83;21627;-58
2022/12/29 12:52:48;;;;;;;25.00;7.20;;;;;;;9.48;100.00;98465.00;2134364;83;21081;-59
2022/12/29 12:55:50;;;;;;;26.42;8.05;;;;;;;9.43;100.00;98478.84;2134398;83;21531;-59
2022/12/29 12:58:51;;;;;;;26.42;8.23;;;;;;;9.44;100.00;98474.43;2133977;83;21080;-59
2022/12/29 13:01:53;;;;;;;23.55;7.22;;;;;;;9.44;100.00;98469.19;2134334;83;21067;-59
2022/12/29 13:04:54;;;;;;;25.75;7.35;;;;;;;9.34;100.00;98461.92;2134444;83;21000;-59
2022/12/29 13:07:56;;;;;;;22.75;7.22;;;;;;;9.41;100.00;98474.63;2134150;83;21120;-59
2022/12/29 13:10:57;;;;;;;22.77;7.30;;;;;;;9.38;100.00;98482.22;2134654;83;21114;-59
2022/12/29 13:13:59;;;;;;;26.05;9.25;;;;;;;9.38;100.00;98474.81;2133917;83;21043;-59
2022/12/29 13:17:01;;;;;;;25.53;9.17;;;;;;;9.35;100.00;98473.22;2134414;83;21119;-59
2022/12/29 13:20:02;;;;;;;29.67;10.00;;;;;;;9.41;100.00;98483.78;2134547;83;21099;-59
2022/12/29 13:23:03;;;;;;;27.17;8.33;;;;;;;9.31;100.00;98475.66;2134227;83;21076;-59
2022/12/29 13:26:05;;;;;;;27.87;9.63;;;;;;;9.25;100.00;98477.34;2134405;83;21106;-59
2022/12/29 13:29:07;;;;;;;27.10;8.73;;;;;;;9.24;100.00;98473.90;2134285;83;21107;-59
2022/12/29 13:32:08;;;;;;;26.17;9.00;;;;;;;9.19;100.00;98470.70;2134338;83;21072;-59
2022/12/29 13:35:10;;;;;;;23.70;7.70;;;;;;;9.22;100.00;98474.92;2134234;83;21104;-58
2022/12/29 13:38:11;;;;;;;33.10;9.83;;;;;;;9.14;100.00;98481.94;2134743;83;21107;-59
2022/12/29 13:41:13;;;;;;;25.20;7.60;;;;;;;8.98;100.00;98482.86;2138336;83;21162;-59
2022/12/29 13:44:14;;;;;;;27.77;9.20;;;;;;;8.92;100.00;98483.23;2138389;83;21471;-59
2022/12/29 13:47:16;;;;;;;27.87;9.60;;;;;;;8.92;100.00;98483.67;2138372;83;21055;-59
2022/12/29 13:50:17;;;;;;;32.83;10.93;;;;;;;8.89;100.00;98495.16;2138206;83;21763;-59
2022/12/29 13:53:20;;;;;;;33.27;11.80;;;;;;;8.90;100.00;98489.00;2137935;83;21068;-59
2022/12/29 13:56:24;;;;;;;30.75;11.45;;;;;;;8.83;100.00;98483.31;2138401;83;21715;-59
2022/12/29 13:59:25;;;;;;;27.85;9.10;;;;;;;8.71;100.00;98495.80;2113642;83;21028;-59
2022/12/29 14:02:26;;;;;;;26.52;8.55;;;;;;;8.78;100.00;98481.91;2143872;83;20987;-59
2022/12/29 14:05:28;;;;;;;24.37;8.40;;;;;;;8.82;100.00;98483.38;2143939;83;21486;-59
2022/12/29 14:08:29;;;;;;;26.30;8.95;;;;;;;8.75;100.00;98480.30;2143930;83;21042;-59
2022/12/29 14:11:31;;;;;;;33.65;11.70;;;;;;;8.79;100.00;98482.25;2143616;83;21529;-59
2022/12/29 14:14:33;;;;;;;30.23;12.68;;;;;;;8.82;100.00;98473.78;2143831;83;21122;-59
2022/12/29 14:17:34;;;;;;;28.97;10.80;;;;;;;8.66;100.00;98480.38;2144032;83;21533;-59
2022/12/29 14:20:36;;;;;;;30.05;10.80;;;;;;;8.60;100.00;98477.27;2144118;83;20992;-59
2022/12/29 14:23:38;;;;;;;27.37;9.23;;;;;;;8.53;100.00;98478.09;2143948;83;21051;-59
2022/12/29 14:26:40;;;;;;;25.77;8.37;;;;;;;8.52;100.00;98478.17;2144257;83;20972;-59
2022/12/29 14:29:41;;;;;;;28.45;9.65;;;;;;;8.55;100.00;98485.84;2143809;83;21224;-59
2022/12/29 14:32:43;;;;;;;25.97;8.00;;;;;;;8.53;100.00;98478.09;2143875;83;20979;-59
2022/12/29 14:35:45;;;;;;;35.95;10.75;;;;;;;8.49;100.00;98469.59;2143751;83;20988;-58
2022/12/29 14:38:47;;;;;;;28.05;9.05;;;;;;;8.48;100.00;98463.16;2139742;83;21059;-58
2022/12/29 14:41:48;;;;;;;29.87;9.50;;;;;;;8.47;100.00;98471.44;2127539;84;21062;-61